Time;durP1;ratioP1;P1;durP2;ratioP2;P2;SDS_P1;SDS_P2;PMS_P1;PMS_P2;Temp;Humidity;BMP_temperature;BMP_pressure;BME280_temperature;BME280_humidity;BME280_pressure;Samples;Min_cycle;Max_cycle;Signal;HPM_P1;HPM_P2
2022/02/16 00:07:32;;;;;;;4.23;3.60;;;9.20;99.90;;;;;;5094819;22;20248;-80
2022/02/16 00:09:59;;;;;;;3.77;3.30;;;9.20;99.90;;;;;;5075375;28;20206;-79
2022/02/16 00:12:26;;;;;;;3.87;3.33;;;9.20;99.90;;;;;;5075985;28;20280;-78
2022/02/16 00:14:52;;;;;;;5.30;4.38;;;9.20;99.90;;;;;;5075479;28;20432;-78
2022/02/16 00:17:19;;;;;;;4.27;3.93;;;9.30;99.90;;;;;;5076006;28;20220;-81
2022/02/16 00:19:46;;;;;;;3.83;3.50;;;9.30;99.90;;;;;;5075990;28;20225;-79
2022/02/16 00:22:13;;;;;;;5.10;3.63;;;9.30;99.90;;;;;;5076060;28;20205;-78
2022/02/16 00:24:41;;;;;;;7.57;4.00;;;9.40;99.90;;;;;;5075802;28;20214;-78
2022/02/16 00:27:08;;;;;;;4.23;3.20;;;9.30;99.90;;;;;;5076477;28;20205;-81
2022/02/16 00:29:35;;;;;;;5.37;3.20;;;9.30;99.90;;;;;;5077057;28;20201;-81
2022/02/16 00:32:02;;;;;;;4.95;3.70;;;9.30;99.90;;;;;;5074901;28;20439;-81
2022/02/16 00:34:28;;;;;;;4.73;3.77;;;9.30;99.90;;;;;;5076356;28;20186;-80
2022/02/16 00:36:56;;;;;;;4.60;3.50;;;9.30;99.90;;;;;;5076111;28;20562;-79
2022/02/16 00:39:23;;;;;;;3.13;2.73;;;9.50;99.90;;;;;;5075243;28;20209;-80
2022/02/16 00:41:54;;;;;;;5.53;2.90;;;9.20;99.90;;;;;;5076440;28;20705;-79
2022/02/16 00:44:20;;;;;;;3.43;2.77;;;9.30;99.90;;;;;;5075632;28;20201;-80
2022/02/16 00:46:47;;;;;;;3.63;2.73;;;9.30;99.90;;;;;;5076572;28;20194;-80
2022/02/16 00:49:14;;;;;;;4.00;3.07;;;9.20;99.90;;;;;;5075057;28;20440;-79
2022/02/16 00:51:44;;;;;;;3.50;2.90;;;9.30;99.90;;;;;;5076022;28;20458;-80
2022/02/16 00:54:11;;;;;;;3.13;2.50;;;9.30;99.90;;;;;;5075661;28;20201;-79
2022/02/16 00:56:40;;;;;;;4.17;2.40;;;9.30;99.90;;;;;;5074721;28;20216;-81
2022/02/16 00:59:09;;;;;;;4.77;2.70;;;9.30;99.90;;;;;;5075563;28;20206;-80
2022/02/16 01:01:37;;;;;;;2.93;2.40;;;9.30;99.90;;;;;;5075530;28;20234;-81
2022/02/16 01:04:05;;;;;;;3.83;2.60;;;9.30;99.90;;;;;;5075899;28;20200;-79
2022/02/16 01:06:31;;;;;;;3.00;2.70;;;9.30;99.90;;;;;;5075182;28;21119;-78
2022/02/16 01:08:58;;;;;;;3.03;2.33;;;9.30;99.90;;;;;;5075088;28;20212;-80
2022/02/16 01:11:31;;;;;;;3.00;2.50;;;9.30;99.90;;;;;;5075507;28;20202;-80
2022/02/16 01:13:58;;;;;;;4.60;2.50;;;9.30;99.90;;;;;;5075158;28;20649;-79
2022/02/16 01:16:26;;;;;;;2.10;2.00;;;9.20;99.90;;;;;;5074994;28;20206;-80
2022/02/16 01:18:52;;;;;;;2.27;2.07;;;9.30;99.90;;;;;;5075257;28;20206;-79
2022/02/16 01:21:19;;;;;;;3.00;2.00;;;9.30;99.90;;;;;;5075024;28;20233;-80
2022/02/16 01:23:46;;;;;;;2.00;1.90;;;9.20;99.90;;;;;;5075297;28;20196;-79
2022/02/16 01:26:17;;;;;;;2.43;1.97;;;9.30;99.90;;;;;;5075012;28;20198;-81
2022/02/16 01:28:46;;;;;;;3.83;2.00;;;9.30;99.90;;;;;;5075194;28;20235;-79
2022/02/16 01:31:13;;;;;;;3.50;2.30;;;9.30;99.90;;;;;;5075206;28;20205;-79
2022/02/16 01:33:41;;;;;;;2.13;2.03;;;9.30;99.90;;;;;;5075232;28;20206;-78
2022/02/16 01:36:08;;;;;;;2.53;2.30;;;9.30;99.90;;;;;;5074981;28;20295;-78
2022/02/16 01:38:36;;;;;;;2.57;2.37;;;9.30;99.90;;;;;;5074783;28;20244;-78
2022/02/16 01:41:03;;;;;;;3.13;2.83;;;9.30;99.90;;;;;;5074829;28;20444;-80
2022/02/16 01:43:30;;;;;;;3.93;2.90;;;9.30;99.90;;;;;;5074828;28;20439;-79
2022/02/16 01:45:58;;;;;;;2.43;2.27;;;9.30;99.90;;;;;;5075154;28;20209;-79
2022/02/16 01:48:25;;;;;;;3.70;2.80;;;9.30;99.90;;;;;;5074823;28;20206;-79
2022/02/16 01:50:53;;;;;;;3.10;2.40;;;9.30;99.90;;;;;;5074414;28;20202;-80
2022/02/16 01:53:20;;;;;;;3.23;2.67;;;9.40;99.90;;;;;;5074088;28;20654;-78
2022/02/16 01:55:47;;;;;;;4.20;2.67;;;9.40;99.90;;;;;;5074249;28;20202;-79
2022/02/16 01:58:16;;;;;;;2.77;2.57;;;9.50;99.90;;;;;;5073848;28;20201;-78
2022/02/16 02:00:44;;;;;;;3.20;3.00;;;9.50;99.90;;;;;;5073208;28;20525;-81
2022/02/16 02:03:11;;;;;;;2.80;2.50;;;9.60;99.90;;;;;;5074100;28;20198;-77
2022/02/16 02:05:40;;;;;;;3.23;2.90;;;9.50;99.90;;;;;;5073438;28;20201;-78
2022/02/16 02:08:11;;;;;;;3.73;3.23;;;9.50;99.90;;;;;;5073292;28;20620;-80
2022/02/16 02:10:39;;;;;;;4.27;2.80;;;9.40;99.90;;;;;;5073931;28;20216;-79
2022/02/16 02:13:05;;;;;;;4.10;2.70;;;9.50;99.90;;;;;;5073675;28;20206;-80
2022/02/16 02:15:32;;;;;;;3.50;3.20;;;9.40;99.90;;;;;;5073612;28;20206;-79
2022/02/16 02:18:00;;;;;;;3.50;3.20;;;9.50;99.90;;;;;;5073872;28;20463;-79
2022/02/16 02:20:30;;;;;;;2.90;2.70;;;9.40;99.90;;;;;;5073485;28;20240;-78
2022/02/16 02:22:57;;;;;;;3.13;2.93;;;9.60;99.90;;;;;;5074091;28;20533;-79
2022/02/16 02:25:24;;;;;;;3.23;2.87;;;9.50;99.90;;;;;;5073723;28;20651;-79
2022/02/16 02:27:52;;;;;;;3.67;2.13;;;9.40;99.90;;;;;;5074626;28;20263;-78
2022/02/16 02:30:19;;;;;;;3.17;2.97;;;9.40;99.90;;;;;;5074090;28;20217;-78
2022/02/16 02:32:48;;;;;;;3.83;3.23;;;9.40;99.90;;;;;;5073596;28;20209;-78
2022/02/16 02:35:16;;;;;;;3.43;3.10;;;9.40;99.90;;;;;;5073671;28;20602;-79
2022/02/16 02:37:44;;;;;;;4.13;3.13;;;9.40;99.90;;;;;;5073866;28;20225;-79
2022/02/16 02:40:12;;;;;;;4.10;2.63;;;9.40;99.90;;;;;;5073526;28;20648;-79
2022/02/16 02:42:39;;;;;;;2.60;2.40;;;9.40;99.90;;;;;;5073564;28;20293;-79
2022/02/16 02:45:08;;;;;;;2.70;2.50;;;9.40;99.90;;;;;;5074044;28;20198;-78
2022/02/16 02:47:34;;;;;;;3.47;2.40;;;9.40;99.90;;;;;;5073966;28;20298;-79
2022/02/16 02:50:01;;;;;;;2.70;2.50;;;9.40;99.90;;;;;;5073916;28;20217;-78
2022/02/16 02:52:31;;;;;;;3.07;2.43;;;9.40;99.90;;;;;;5074545;28;20193;-77
2022/02/16 02:55:00;;;;;;;3.67;3.30;;;9.40;99.90;;;;;;5073755;28;20914;-78
2022/02/16 02:57:28;;;;;;;2.80;2.60;;;9.50;99.90;;;;;;5074517;28;20201;-78
2022/02/16 02:59:55;;;;;;;4.43;2.67;;;9.50;99.90;;;;;;5073501;28;20194;-77
2022/02/16 03:02:23;;;;;;;3.00;2.67;;;9.50;99.90;;;;;;5073930;28;20256;-79
2022/02/16 03:04:50;;;;;;;2.80;2.70;;;9.50;99.90;;;;;;5073020;28;20198;-79
2022/02/16 03:07:17;;;;;;;2.73;2.53;;;9.50;99.90;;;;;;5072908;28;20618;-77
2022/02/16 03:09:44;;;;;;;3.43;2.40;;;9.40;99.90;;;;;;5073039;28;20213;-78
2022/02/16 03:12:12;;;;;;;2.53;2.27;;;9.40;99.90;;;;;;5073673;28;20209;-76
2022/02/16 03:14:41;;;;;;;3.20;3.00;;;9.40;99.90;;;;;;5072595;28;20435;-80
2022/02/16 03:17:08;;;;;;;2.50;2.30;;;9.50;99.90;;;;;;5073247;28;20251;-81
2022/02/16 03:19:35;;;;;;;2.23;2.13;;;9.50;99.90;;;;;;5074752;28;20547;-77
2022/02/16 03:22:02;;;;;;;2.80;2.60;;;9.40;99.90;;;;;;5077272;28;20230;-77
2022/02/16 03:24:28;;;;;;;3.07;2.70;;;9.40;99.90;;;;;;5077324;28;20202;-78
2022/02/16 03:26:56;;;;;;;2.90;2.70;;;9.40;99.90;;;;;;5076997;28;20198;-77
2022/02/16 03:29:24;;;;;;;2.90;2.70;;;9.50;99.90;;;;;;5076064;28;20201;-79
2022/02/16 03:31:51;;;;;;;3.33;3.13;;;9.50;99.90;;;;;;5076498;28;20434;-79
2022/02/16 03:34:17;;;;;;;3.20;3.10;;;9.50;99.90;;;;;;5076796;28;20186;-78
2022/02/16 03:36:44;;;;;;;3.10;2.90;;;9.50;99.90;;;;;;5076553;28;20208;-78
2022/02/16 03:39:11;;;;;;;4.70;3.47;;;9.50;99.90;;;;;;5076362;28;20206;-78
2022/02/16 03:41:39;;;;;;;4.13;3.10;;;9.50;99.90;;;;;;5076672;28;20256;-78
2022/02/16 03:44:06;;;;;;;3.20;3.00;;;9.50;99.90;;;;;;5076827;28;20198;-78
2022/02/16 03:46:34;;;;;;;3.87;3.57;;;9.50;99.90;;;;;;5076350;28;20652;-79
2022/02/16 03:49:03;;;;;;;2.90;2.70;;;9.60;99.90;;;;;;5076615;28;20494;-77
2022/02/16 03:51:30;;;;;;;3.17;2.97;;;9.60;99.90;;;;;;5076292;28;20194;-77
2022/02/16 03:53:58;;;;;;;3.17;2.97;;;9.60;99.90;;;;;;5076812;28;20209;-77
2022/02/16 03:56:25;;;;;;;3.37;3.17;;;9.60;99.90;;;;;;5076056;28;20201;-79
2022/02/16 03:58:52;;;;;;;3.20;3.00;;;9.50;99.90;;;;;;5077474;28;20212;-77
2022/02/16 04:01:19;;;;;;;3.43;3.23;;;9.50;99.90;;;;;;5076068;28;20225;-78
2022/02/16 04:03:47;;;;;;;3.30;3.10;;;9.50;99.90;;;;;;5076436;28;20213;-79
2022/02/16 04:06:14;;;;;;;3.40;3.10;;;9.60;99.90;;;;;;5076497;28;20229;-78
2022/02/16 04:08:41;;;;;;;3.37;3.17;;;9.60;99.90;;;;;;5076168;28;20206;-78
2022/02/16 04:11:08;;;;;;;4.50;4.22;;;9.70;99.90;;;;;;5074461;28;20543;-77
2022/02/16 04:13:35;;;;;;;3.80;3.60;;;9.70;99.90;;;;;;5076006;28;20202;-77
2022/02/16 04:16:02;;;;;;;5.00;3.23;;;9.70;99.90;;;;;;5075367;28;20300;-78
2022/02/16 04:18:28;;;;;;;3.47;3.03;;;9.70;99.90;;;;;;5075665;28;20205;-79
2022/02/16 04:20:57;;;;;;;3.17;2.70;;;9.70;99.90;;;;;;5075882;28;20229;-77
2022/02/16 04:23:25;;;;;;;2.93;2.73;;;9.70;99.90;;;;;;5076094;28;20293;-77
2022/02/16 04:25:52;;;;;;;3.10;2.80;;;9.70;99.90;;;;;;5075974;28;20194;-77
2022/02/16 04:28:21;;;;;;;3.30;3.00;;;9.70;99.90;;;;;;5075579;28;20228;-79
2022/02/16 04:30:48;;;;;;;2.63;2.50;;;9.70;99.90;;;;;;5074721;28;20206;-80
2022/02/16 04:33:15;;;;;;;2.80;2.70;;;9.70;99.90;;;;;;5075759;28;20211;-79
2022/02/16 04:35:42;;;;;;;3.00;2.67;;;9.80;99.90;;;;;;5076004;28;20201;-81
2022/02/16 04:38:10;;;;;;;2.83;2.63;;;9.70;99.90;;;;;;5068575;28;20211;-79
2022/02/16 04:40:37;;;;;;;2.80;2.70;;;9.80;99.90;;;;;;5069896;28;20203;-79
2022/02/16 04:43:05;;;;;;;2.83;2.60;;;9.70;99.90;;;;;;5053110;28;20213;-78
2022/02/16 04:45:33;;;;;;;2.30;2.20;;;9.70;99.90;;;;;;5054107;28;20601;-77
2022/02/16 04:48:00;;;;;;;2.13;2.03;;;9.70;99.90;;;;;;5055481;28;20661;-77
2022/02/16 04:50:27;;;;;;;2.10;2.00;;;9.80;99.90;;;;;;5055436;28;20194;-78
2022/02/16 04:52:55;;;;;;;2.80;2.30;;;9.80;99.90;;;;;;5055305;28;20228;-78
2022/02/16 04:55:24;;;;;;;2.17;2.07;;;9.80;99.90;;;;;;5056227;28;20229;-79
2022/02/16 04:57:51;;;;;;;2.00;1.90;;;9.80;99.90;;;;;;5055887;28;20634;-80
2022/02/16 05:00:19;;;;;;;2.27;2.17;;;9.70;99.90;;;;;;5055647;28;20210;-76
2022/02/16 05:02:46;;;;;;;2.60;2.40;;;9.80;99.90;;;;;;5056409;28;20673;-78
2022/02/16 05:05:14;;;;;;;4.00;2.47;;;9.80;99.90;;;;;;5056509;28;20761;-80
2022/02/16 05:07:41;;;;;;;2.50;2.40;;;9.80;99.90;;;;;;5055323;28;20233;-77
2022/02/16 05:10:09;;;;;;;2.97;2.77;;;9.80;99.90;;;;;;5055803;28;20202;-77
2022/02/16 05:12:38;;;;;;;2.30;2.20;;;9.90;99.90;;;;;;5055613;28;20708;-79
2022/02/16 05:15:06;;;;;;;2.70;2.60;;;9.90;99.90;;;;;;5055317;28;20206;-81
2022/02/16 05:17:33;;;;;;;3.00;2.83;;;9.90;99.90;;;;;;5055773;28;20680;-82
2022/02/16 05:20:00;;;;;;;2.73;2.47;;;9.80;99.90;;;;;;5055839;28;20217;-79
2022/02/16 05:22:27;;;;;;;2.47;2.27;;;9.90;99.90;;;;;;5056282;28;20227;-80
2022/02/16 05:24:55;;;;;;;3.30;2.97;;;9.90;99.90;;;;;;5056240;28;20661;-76
2022/02/16 05:27:22;;;;;;;2.57;2.37;;;9.90;99.90;;;;;;5056313;28;20270;-79
2022/02/16 05:29:50;;;;;;;2.55;2.45;;;10.00;99.90;;;;;;5054748;28;20438;-76
2022/02/16 05:32:17;;;;;;;2.10;2.00;;;10.00;99.90;;;;;;5054652;28;20199;-77
2022/02/16 05:34:43;;;;;;;2.83;2.63;;;10.00;99.90;;;;;;5055657;28;20217;-77
2022/02/16 05:37:10;;;;;;;2.30;2.10;;;10.00;99.90;;;;;;5055424;28;20203;-78
2022/02/16 05:39:37;;;;;;;2.20;2.10;;;10.00;99.90;;;;;;5055306;28;20191;-78
2022/02/16 05:42:06;;;;;;;2.50;2.20;;;10.00;99.90;;;;;;5054723;28;20657;-77
2022/02/16 05:44:33;;;;;;;2.27;2.00;;;10.00;99.90;;;;;;5055206;28;20290;-79
2022/02/16 05:47:04;;;;;;;2.03;1.93;;;10.10;99.90;;;;;;5055610;28;20597;-80
2022/02/16 05:49:31;;;;;;;2.67;2.47;;;10.10;99.90;;;;;;5055050;28;20431;-80
2022/02/16 05:51:58;;;;;;;2.60;2.20;;;10.10;99.90;;;;;;5055626;28;20977;-81
2022/02/16 05:54:25;;;;;;;1.93;1.60;;;10.10;99.90;;;;;;5055249;28;20213;-82
2022/02/16 05:56:53;;;;;;;1.80;1.70;;;10.10;99.90;;;;;;5037666;28;20213;-80
2022/02/16 05:59:19;;;;;;;1.93;1.83;;;10.20;99.90;;;;;;5054988;28;20190;-81
2022/02/16 06:01:46;;;;;;;1.33;1.30;;;10.20;99.90;;;;;;5060868;28;20240;-80
2022/02/16 06:04:16;;;;;;;1.53;1.43;;;10.20;99.90;;;;;;5074428;28;20205;-78
2022/02/16 06:06:43;;;;;;;1.57;1.47;;;10.20;99.90;;;;;;5071870;28;20225;-80
2022/02/16 06:09:10;;;;;;;1.35;1.30;;;10.30;99.90;;;;;;5072730;28;20413;-80
2022/02/16 06:11:37;;;;;;;2.77;1.30;;;10.30;99.90;;;;;;5074314;28;20209;-81
2022/02/16 06:14:06;;;;;;;1.30;1.20;;;10.30;99.90;;;;;;5074143;28;20228;-82
2022/02/16 06:16:33;;;;;;;1.50;1.40;;;10.30;99.90;;;;;;5073109;28;20668;-83
2022/02/16 06:19:00;;;;;;;1.83;1.20;;;10.40;99.90;;;;;;5074140;28;20209;-80
2022/02/16 06:21:28;;;;;;;1.17;1.17;;;10.40;99.90;;;;;;5073962;28;20229;-81
2022/02/16 06:23:55;;;;;;;1.20;1.20;;;10.40;99.90;;;;;;5073078;28;20225;-81
2022/02/16 06:26:22;;;;;;;1.73;1.40;;;10.50;99.90;;;;;;5073705;28;20186;-79
2022/02/16 06:28:49;;;;;;;1.10;0.97;;;10.40;99.90;;;;;;5074055;28;20205;-79
2022/02/16 06:31:17;;;;;;;1.27;1.17;;;10.50;99.90;;;;;;5073460;28;20213;-80
2022/02/16 06:33:43;;;;;;;1.20;1.10;;;10.50;99.90;;;;;;5073960;28;20201;-81
2022/02/16 06:36:10;;;;;;;1.13;1.10;;;10.50;99.90;;;;;;5073464;28;20198;-80
2022/02/16 06:38:39;;;;;;;1.07;1.07;;;10.60;99.90;;;;;;5073234;28;20244;-84
2022/02/16 06:41:08;;;;;;;1.70;1.37;;;10.60;99.90;;;;;;5072955;28;20205;-85
2022/02/16 06:43:35;;;;;;;1.93;1.83;;;10.60;99.90;;;;;;5074349;28;20214;-83
2022/02/16 06:46:03;;;;;;;1.83;1.20;;;10.60;99.90;;;;;;5073817;28;20194;-83
2022/02/16 06:48:30;;;;;;;3.30;1.80;;;10.50;99.90;;;;;;5073869;28;20186;-83
2022/02/16 06:51:02;;;;;;;1.57;1.50;;;10.60;99.90;;;;;;5074853;28;20439;-86
2022/02/16 06:53:30;;;;;;;1.60;1.60;;;10.60;99.90;;;;;;5075722;28;20423;-89
2022/02/16 06:55:59;;;;;;;1.83;1.73;;;10.60;99.90;;;;;;5082991;28;20265;-86
2022/02/16 06:58:26;;;;;;;1.90;1.80;;;10.60;99.90;;;;;;5081274;28;20568;-86
2022/02/16 07:00:54;;;;;;;2.53;2.30;;;10.60;99.90;;;;;;5081249;28;20210;-87
2022/02/16 07:03:24;;;;;;;2.50;2.40;;;10.60;99.90;;;;;;5081782;28;20324;-89
2022/02/16 07:05:51;;;;;;;3.22;2.92;;;10.60;99.90;;;;;;5077371;28;20442;-88
2022/02/16 07:08:21;;;;;;;3.13;2.93;;;10.70;99.90;;;;;;5073707;28;20254;-86
2022/02/16 07:11:11;;;;;;;3.53;3.30;;;10.70;99.90;;;;;;5073946;28;20197;-87
2022/02/16 07:13:38;;;;;;;4.10;3.47;;;10.80;99.90;;;;;;5073858;28;20205;-86
2022/02/16 07:16:10;;;;;;;4.23;3.87;;;10.80;99.90;;;;;;5073640;28;20223;-82
2022/02/16 07:18:43;;;;;;;5.57;4.03;;;10.80;99.90;;;;;;5073318;28;20206;-85
2022/02/16 07:21:13;;;;;;;4.77;4.27;;;10.80;99.90;;;;;;5073420;28;20199;-86
2022/02/16 07:23:48;;;;;;;5.97;5.20;;;10.90;99.90;;;;;;5073158;28;20209;-85
2022/02/16 07:26:19;;;;;;;4.47;4.07;;;10.90;99.90;;;;;;5072768;28;20236;-86
2022/02/16 07:28:48;;;;;;;4.97;4.57;;;11.00;99.90;;;;;;5073246;28;20206;-85
2022/02/16 07:31:16;;;;;;;3.53;3.33;;;11.00;99.90;;;;;;5073299;28;20201;-87
2022/02/16 07:33:44;;;;;;;3.93;3.23;;;11.00;99.90;;;;;;5073276;28;20313;-90
2022/02/16 07:36:32;;;;;;;2.43;2.33;;;11.00;99.90;;;;;;5073087;28;20201;-85
2022/02/16 07:39:03;;;;;;;2.77;2.60;;;11.10;99.90;;;;;;5073024;28;20194;-87
2022/02/16 07:41:32;;;;;;;2.30;2.10;;;11.10;99.90;;;;;;5073520;28;20253;-86
2022/02/16 07:44:05;;;;;;;2.50;2.37;;;11.10;99.90;;;;;;5072859;28;20206;-83
2022/02/16 07:46:32;;;;;;;2.70;2.23;;;11.10;99.90;;;;;;5072903;28;20210;-85
2022/02/16 07:49:02;;;;;;;2.00;1.90;;;11.10;99.90;;;;;;5072661;28;20626;-83
2022/02/16 07:51:30;;;;;;;2.20;2.10;;;11.10;99.90;;;;;;5073288;28;20202;-84
2022/02/16 07:53:58;;;;;;;2.33;2.13;;;11.10;99.90;;;;;;5072449;28;20193;-83
2022/02/16 07:56:25;;;;;;;2.40;2.17;;;11.10;99.90;;;;;;5072757;28;20198;-83
2022/02/16 07:58:53;;;;;;;2.83;1.90;;;11.20;99.90;;;;;;5072709;28;20553;-84
2022/02/16 08:01:21;;;;;;;2.90;1.80;;;11.20;99.90;;;;;;5073000;28;20680;-83
2022/02/16 08:03:51;;;;;;;2.10;1.90;;;11.20;99.90;;;;;;5072870;28;20226;-85
2022/02/16 08:06:18;;;;;;;3.03;1.47;;;11.20;99.90;;;;;;5075618;28;20225;-83
2022/02/16 08:08:44;;;;;;;1.30;1.30;;;11.10;99.90;;;;;;5076353;28;20197;-82
2022/02/16 08:11:11;;;;;;;2.03;1.93;;;11.20;99.90;;;;;;5075730;28;20202;-85
2022/02/16 08:13:38;;;;;;;3.27;2.27;;;11.20;99.90;;;;;;5075161;28;20225;-81
2022/02/16 08:16:08;;;;;;;1.93;1.83;;;11.20;99.90;;;;;;5075683;28;20189;-81
2022/02/16 08:18:34;;;;;;;5.03;2.10;;;11.30;99.90;;;;;;5072788;28;20209;-78
2022/02/16 08:21:01;;;;;;;3.13;2.27;;;11.20;99.90;;;;;;5075485;28;20649;-80
2022/02/16 08:23:30;;;;;;;2.57;2.37;;;11.20;99.90;;;;;;5074252;28;20232;-79
2022/02/16 08:25:57;;;;;;;2.90;2.70;;;11.20;99.90;;;;;;5075417;28;20202;-82
2022/02/16 08:28:24;;;;;;;2.80;2.60;;;11.30;99.90;;;;;;5074469;28;20223;-79
2022/02/16 08:30:51;;;;;;;4.37;2.70;;;11.20;99.90;;;;;;5074798;28;20213;-83
2022/02/16 08:33:19;;;;;;;3.03;2.60;;;11.30;99.90;;;;;;5075086;28;20199;-78
2022/02/16 08:35:51;;;;;;;5.30;3.28;;;11.40;99.90;;;;;;5071931;28;20442;-81
2022/02/16 08:38:18;;;;;;;3.40;2.60;;;11.40;99.90;;;;;;5074433;28;20194;-82
2022/02/16 08:40:45;;;;;;;3.30;2.40;;;11.40;99.90;;;;;;5072152;28;20202;-80
2022/02/16 08:43:12;;;;;;;4.03;2.40;;;11.40;99.90;;;;;;5074874;28;20534;-81
2022/02/16 08:45:40;;;;;;;2.60;2.23;;;11.50;99.90;;;;;;5075073;28;20206;-80
2022/02/16 08:48:06;;;;;;;3.50;2.20;;;11.50;99.90;;;;;;5074791;28;20202;-78
2022/02/16 08:50:35;;;;;;;3.43;2.03;;;11.50;99.90;;;;;;5075076;28;20607;-80
2022/02/16 08:53:02;;;;;;;3.43;2.00;;;11.50;99.90;;;;;;5056409;28;20233;-79
2022/02/16 08:55:30;;;;;;;2.27;2.03;;;11.60;99.90;;;;;;5074943;28;20192;-77
2022/02/16 08:57:57;;;;;;;6.40;2.38;;;11.60;99.90;;;;;;5073756;28;20450;-78
2022/02/16 09:00:24;;;;;;;2.93;1.67;;;11.80;99.90;;;;;;5074479;28;20195;-78
2022/02/16 09:02:51;;;;;;;6.07;2.10;;;11.80;99.90;;;;;;5074240;28;20684;-83
2022/02/16 09:05:18;;;;;;;4.60;1.70;;;11.80;99.90;;;;;;5074441;28;20187;-78
2022/02/16 09:07:46;;;;;;;3.77;1.73;;;11.70;99.90;;;;;;5074202;28;20230;-78
2022/02/16 09:10:14;;;;;;;7.43;1.97;;;11.80;99.90;;;;;;5074298;28;20198;-85
2022/02/16 09:12:42;;;;;;;3.30;1.73;;;11.80;99.90;;;;;;5074365;28;20186;-82
2022/02/16 09:15:09;;;;;;;6.00;2.17;;;12.00;99.90;;;;;;5073715;28;20190;-80
2022/02/16 09:17:36;;;;;;;2.53;1.97;;;11.90;99.90;;;;;;5072921;28;20206;-83
2022/02/16 09:20:04;;;;;;;6.50;2.03;;;11.90;99.90;;;;;;5073997;28;20190;-85
2022/02/16 09:22:31;;;;;;;3.80;1.93;;;11.90;99.90;;;;;;5073511;28;20233;-79
2022/02/16 09:24:59;;;;;;;6.50;2.50;;;11.90;99.90;;;;;;5069460;28;20190;-80
2022/02/16 09:27:25;;;;;;;5.13;2.30;;;11.90;99.90;;;;;;5072231;28;20198;-79
2022/02/16 09:29:53;;;;;;;6.17;2.93;;;11.90;99.90;;;;;;5073571;28;20194;-80
2022/02/16 09:32:21;;;;;;;11.20;3.33;;;12.00;99.90;;;;;;5071410;28;20195;-81
2022/02/16 09:34:47;;;;;;;6.93;3.10;;;12.00;99.90;;;;;;5073441;28;20198;-83
2022/02/16 09:37:14;;;;;;;7.73;3.10;;;12.00;99.90;;;;;;5073757;28;20182;-80
2022/02/16 09:39:41;;;;;;;9.00;3.70;;;11.90;99.90;;;;;;5073765;28;20428;-80
2022/02/16 09:42:09;;;;;;;10.23;3.63;;;11.90;99.90;;;;;;5073978;28;20206;-81
2022/02/16 09:44:55;;;;;;;8.23;3.03;;;12.00;99.90;;;;;;5074064;28;20200;-83
2022/02/16 09:47:22;;;;;;;9.20;2.93;;;12.00;99.90;;;;;;5069117;28;20207;-83
2022/02/16 09:49:49;;;;;;;9.80;2.97;;;12.10;99.90;;;;;;5069040;28;20634;-82
2022/02/16 09:52:16;;;;;;;9.73;3.27;;;12.10;99.90;;;;;;5074204;28;20229;-80
2022/02/16 09:54:44;;;;;;;10.50;3.07;;;12.10;99.90;;;;;;5073407;28;20287;-86
2022/02/16 09:57:12;;;;;;;11.83;3.23;;;12.10;99.90;;;;;;5073375;28;20188;-79
2022/02/16 09:59:40;;;;;;;11.43;2.83;;;12.10;99.90;;;;;;5073401;28;20284;-78
2022/02/16 10:02:09;;;;;;;11.18;3.65;;;12.20;99.90;;;;;;5073065;28;20434;-79
2022/02/16 10:04:37;;;;;;;15.20;3.30;;;12.30;99.90;;;;;;5072881;28;20223;-85
2022/02/16 10:07:21;;;;;;;14.27;3.30;;;12.30;99.90;;;;;;5073134;28;20305;-80
2022/02/16 10:09:48;;;;;;;9.20;2.80;;;12.30;99.90;;;;;;5073899;28;20200;-81
2022/02/16 10:12:16;;;;;;;9.77;2.63;;;12.30;99.90;;;;;;5073190;28;20199;-81
2022/02/16 10:14:52;;;;;;;11.20;3.33;;;12.30;99.90;;;;;;5073438;28;20191;-86
2022/02/16 10:17:20;;;;;;;13.00;2.70;;;12.40;99.90;;;;;;5073511;28;20210;-86
2022/02/16 10:19:49;;;;;;;11.83;3.07;;;12.50;99.90;;;;;;5073029;28;20203;-84
2022/02/16 10:22:16;;;;;;;11.90;2.93;;;12.60;99.90;;;;;;5073178;28;20207;-87
2022/02/16 10:24:44;;;;;;;13.10;3.03;;;12.60;99.90;;;;;;5073748;28;20223;-88
2022/02/16 10:27:12;;;;;;;13.03;3.27;;;12.60;99.90;;;;;;5072037;28;20235;-79
2022/02/16 10:29:41;;;;;;;12.53;3.13;;;12.70;99.90;;;;;;5052605;28;20204;-78
2022/02/16 10:32:09;;;;;;;12.97;3.50;;;12.80;99.90;;;;;;5053029;28;20202;-84
2022/02/16 10:34:51;;;;;;;8.10;2.37;;;12.80;99.90;;;;;;5052450;28;20216;-82
2022/02/16 10:37:19;;;;;;;9.60;2.80;;;12.80;99.90;;;;;;5053084;28;20213;-86
2022/02/16 10:40:00;;;;;;;11.40;3.50;;;12.90;99.90;;;;;;5052294;28;20205;-87
2022/02/16 10:42:28;;;;;;;9.48;3.60;;;12.80;99.90;;;;;;5051748;28;20425;-86
2022/02/16 10:45:07;;;;;;;9.67;2.40;;;13.00;99.90;;;;;;5052937;28;20197;-81
2022/02/16 10:48:01;;;;;;;8.70;2.90;;;12.90;99.90;;;;;;5052146;28;20204;-82
2022/02/16 10:50:30;;;;;;;14.20;3.17;;;12.90;99.90;;;;;;5064671;28;20541;-81
2022/02/16 10:52:59;;;;;;;13.37;3.27;;;12.80;99.90;;;;;;5072995;28;20216;-86
2022/02/16 10:55:44;;;;;;;14.67;3.90;;;12.80;99.90;;;;;;5073259;28;20212;-84
2022/02/16 10:58:14;;;;;;;6.67;2.50;;;12.70;99.90;;;;;;5074002;28;20210;-86
2022/02/16 11:00:45;;;;;;;10.00;3.10;;;12.70;99.90;;;;;;5073676;28;20261;-85
2022/02/16 11:03:16;;;;;;;14.30;3.80;;;12.70;99.90;;;;;;5072917;28;20240;-85
2022/02/16 11:05:45;;;;;;;16.23;4.00;;;12.70;99.90;;;;;;5072714;28;20651;-82
2022/02/16 11:08:14;;;;;;;13.33;4.10;;;12.80;99.90;;;;;;5072126;28;20216;-82
2022/02/16 11:10:43;;;;;;;15.73;3.90;;;12.80;99.90;;;;;;5072155;28;20637;-83
2022/02/16 11:13:12;;;;;;;21.93;4.37;;;12.90;99.90;;;;;;5069416;28;20560;-86
2022/02/16 11:15:40;;;;;;;21.47;5.00;;;12.80;99.90;;;;;;5072634;28;20199;-84
2022/02/16 11:18:16;;;;;;;20.87;4.80;;;12.90;99.90;;;;;;5072259;28;20208;-82
2022/02/16 11:20:45;;;;;;;18.00;3.83;;;12.90;99.90;;;;;;5072588;28;20204;-85
2022/02/16 11:23:36;;;;;;;27.67;4.67;;;12.90;99.90;;;;;;5073276;28;20227;-86
2022/02/16 11:26:43;;;;;;;20.57;5.10;;;12.90;99.90;;;;;;5072732;28;20201;-85
2022/02/16 11:29:33;;;;;;;26.30;5.93;;;13.00;99.90;;;;;;5072958;28;20500;-85
2022/02/16 11:32:26;;;;;;;24.33;5.17;;;13.10;99.90;;;;;;5072891;28;20205;-85
2022/02/16 11:35:18;;;;;;;23.53;4.93;;;13.20;99.90;;;;;;5073422;28;20562;-85
2022/02/16 11:37:49;;;;;;;17.33;4.87;;;13.30;99.90;;;;;;5073358;28;20655;-84
2022/02/16 11:40:19;;;;;;;24.03;5.70;;;13.40;99.90;;;;;;5075299;28;20197;-84
2022/02/16 11:42:56;;;;;;;26.70;5.87;;;13.40;99.90;;;;;;5077401;28;20220;-85
2022/02/16 11:45:48;;;;;;;24.00;5.63;;;13.40;99.90;;;;;;5077091;28;20647;-84
2022/02/16 11:48:40;;;;;;;24.60;5.72;;;13.40;99.90;;;;;;5076358;28;20472;-87
2022/02/16 11:51:35;;;;;;;23.30;5.83;;;13.50;99.90;;;;;;5059219;28;20215;-89
2022/02/16 11:54:43;;;;;;;23.23;5.67;;;13.50;99.90;;;;;;5077157;28;20683;-89
2022/02/16 11:57:38;;;;;;;16.67;4.97;;;13.40;99.90;;;;;;5077951;28;20207;-85
2022/02/16 12:00:11;;;;;;;16.90;4.83;;;13.40;99.90;;;;;;5079087;28;20613;-90
2022/02/16 12:03:13;;;;;;;20.47;4.63;;;13.40;99.90;;;;;;5067112;28;20645;-86
2022/02/16 12:05:45;;;;;;;22.85;5.65;;;13.40;99.90;;;;;;5061601;28;20437;-88
2022/02/16 12:08:14;;;;;;;22.40;4.87;;;13.50;99.90;;;;;;5067387;28;20234;-87
2022/02/16 12:10:42;;;;;;;21.80;5.70;;;13.40;99.90;;;;;;5066060;28;20199;-88
2022/02/16 12:13:13;;;;;;;19.97;4.67;;;13.50;99.90;;;;;;5044454;28;20718;-91
2022/02/16 12:15:41;;;;;;;23.47;4.90;;;13.40;99.90;;;;;;5057334;28;20193;-86
2022/02/16 12:18:13;;;;;;;20.87;5.30;;;13.40;99.90;;;;;;5056985;28;20203;-89
2022/02/16 12:20:48;;;;;;;14.80;3.90;;;13.40;99.90;;;;;;5056850;28;20202;-88
2022/02/16 12:23:16;;;;;;;18.75;4.63;;;13.40;99.90;;;;;;5056851;28;20430;-86
2022/02/16 12:25:46;;;;;;;14.47;3.77;;;13.60;99.90;;;;;;5056894;28;20213;-89
2022/02/16 12:28:14;;;;;;;19.23;4.10;;;13.70;99.90;;;;;;5057108;28;20197;-88
2022/02/16 12:30:44;;;;;;;18.10;4.50;;;13.60;99.90;;;;;;5056399;28;20201;-86
2022/02/16 12:33:21;;;;;;;21.50;4.70;;;13.40;99.90;;;;;;5056374;28;20205;-87
2022/02/16 12:35:53;;;;;;;23.43;4.83;;;13.50;99.90;;;;;;5061722;28;20240;-82
2022/02/16 12:38:24;;;;;;;18.70;4.13;;;13.50;99.90;;;;;;5056154;28;20219;-85
2022/02/16 12:40:54;;;;;;;18.37;4.30;;;13.40;99.90;;;;;;5065144;28;20210;-88
2022/02/16 12:43:23;;;;;;;24.08;5.95;;;13.40;99.90;;;;;;5038800;28;20529;-84
2022/02/16 12:45:51;;;;;;;22.37;5.47;;;13.50;99.90;;;;;;5072152;28;20214;-86
2022/02/16 12:48:18;;;;;;;20.63;5.07;;;13.60;99.90;;;;;;5074112;28;20209;-80
2022/02/16 12:50:45;;;;;;;18.77;5.17;;;13.70;99.90;;;;;;5072120;28;20215;-83
2022/02/16 12:53:16;;;;;;;18.53;5.40;;;13.60;99.90;;;;;;5072078;28;20236;-85
2022/02/16 12:55:48;;;;;;;23.80;5.30;;;13.70;99.90;;;;;;5070374;28;20216;-82
2022/02/16 12:58:16;;;;;;;23.67;5.30;;;13.70;99.90;;;;;;5074356;28;20652;-85
2022/02/16 13:00:49;;;;;;;23.60;5.47;;;13.70;99.90;;;;;;5074342;28;20205;-81
2022/02/16 13:03:25;;;;;;;27.93;6.20;;;13.70;99.90;;;;;;5073927;28;20291;-84
2022/02/16 13:05:52;;;;;;;31.70;7.97;;;13.80;99.90;;;;;;5073968;28;20202;-79